Time;durP1;ratioP1;P1;durP2;ratioP2;P2;SDS_P1;SDS_P2;PMS_P1;PMS_P2;Temp;Humidity;BMP_temperature;BMP_pressure;BME280_temperature;BME280_humidity;BME280_pressure;Samples;Min_cycle;Max_cycle;Signal;HPM_P1;HPM_P2
2024/01/07 00:01:28;;;;;;;;;;;;;;;;;;4967831;28;19911;-50
2024/01/07 00:03:54;;;;;;;;;;;;;;;;;;4967188;28;19950;-49
2024/01/07 00:06:20;;;;;;;;;;;;;;;;;;4967406;28;20308;-50
2024/01/07 00:08:47;;;;;;;;;;;;;;;;;;4965748;28;19922;-50
2024/01/07 00:11:13;;;;;;;;;;;;;;;;;;4967269;28;19910;-50
2024/01/07 00:13:39;;;;;;;;;;;;;;;;;;4967719;28;19907;-50
2024/01/07 00:16:05;;;;;;;;;;;;;;;;;;4967696;28;20013;-49
2024/01/07 00:18:30;;;;;;;;;;;-0.30;99.90;;;;;;4967002;28;20624;-50
2024/01/07 00:20:56;;;;;;;;;;;;;;;;;;4966890;28;19957;-50
2024/01/07 00:23:22;;;;;;;;;;;;;;;;;;4966770;28;20377;-50
2024/01/07 00:25:48;;;;;;;;;;;;;;;;;;4967565;28;20035;-50
2024/01/07 00:28:14;;;;;;;;;;;;;;;;;;4967485;28;19997;-50
2024/01/07 00:30:40;;;;;;;;;;;;;;;;;;4967028;28;19922;-51
2024/01/07 00:33:06;;;;;;;;;;;;;;;;;;4966742;28;20396;-50
2024/01/07 00:35:32;;;;;;;;;;;;;;;;;;4966833;28;20094;-50
2024/01/07 00:37:58;;;;;;;;;;;;;;;;;;4966709;28;19910;-50
2024/01/07 00:40:24;;;;;;;;;;;;;;;;;;4967282;28;19956;-50
2024/01/07 00:42:51;;;;;;;;;;;;;;;;;;4966260;28;20001;-50
2024/01/07 00:45:16;;;;;;;;;;;;;;;;;;4966542;28;20105;-50
2024/01/07 00:47:42;;;;;;;;;;;;;;;;;;4966870;28;19914;-51
2024/01/07 00:50:08;;;;;;;;;;;;;;;;;;4966673;28;20013;-50
2024/01/07 00:52:36;;;;;;;;;;;;;;;;;;4967181;28;20023;-50
2024/01/07 00:55:03;;;;;;;;;;;;;;;;;;4966529;28;19958;-50
2024/01/07 00:57:28;;;;;;;;;;;-0.50;99.90;;;;;;4966420;28;19989;-50
2024/01/07 00:59:54;;;;;;;;;;;-0.60;99.90;;;;;;4966383;28;20009;-50
2024/01/07 01:02:20;;;;;;;;;;;;;;;;;;4966070;28;19918;-50
2024/01/07 01:04:46;;;;;;;;;;;;;;;;;;4967198;28;20266;-50
2024/01/07 01:07:12;;;;;;;;;;;;;;;;;;4966528;28;20002;-50
2024/01/07 01:09:37;;;;;;;;;;;-0.60;99.90;;;;;;4966489;28;19918;-50
2024/01/07 01:12:03;;;;;;;;;;;-0.60;99.90;;;;;;4966907;28;19918;-50
2024/01/07 01:14:29;;;;;;;;;;;;;;;;;;4966396;28;20001;-50
2024/01/07 01:16:55;;;;;;;;;;;;;;;;;;4966760;28;20021;-50
2024/01/07 01:19:20;;;;;;;;;;;;;;;;;;4966381;28;19973;-50
2024/01/07 01:21:46;;;;;;;;;;;;;;;;;;4966127;28;19922;-50
2024/01/07 01:24:13;;;;;;;;;;;;;;;;;;4966295;28;20005;-50
2024/01/07 01:26:39;;;;;;;;;;;;;;;;;;4966131;28;19964;-50
2024/01/07 01:29:05;;;;;;;;;;;;;;;;;;4966190;28;19910;-50
2024/01/07 01:31:30;;;;;;;;;;;-0.80;99.90;;;;;;4966484;28;19906;-49
2024/01/07 01:33:56;;;;;;;;;;;;;;;;;;4966114;28;19944;-50
2024/01/07 01:36:22;;;;;;;;;;;;;;;;;;4966250;28;19972;-49
2024/01/07 01:38:48;;;;;;;;;;;;;;;;;;4965964;28;19997;-50
2024/01/07 01:41:14;;;;;;;;;;;;;;;;;;4965882;28;19945;-50
2024/01/07 01:43:40;;;;;;;;;;;;;;;;;;4966408;28;20280;-50
2024/01/07 01:46:06;;;;;;;;;;;;;;;;;;4965973;28;19914;-49
2024/01/07 01:48:32;;;;;;;;;;;;;;;;;;4965894;28;20005;-50
2024/01/07 01:50:58;;;;;;;;;;;;;;;;;;4965774;28;19918;-50
2024/01/07 01:53:26;;;;;;;;;;;-1.20;99.90;;;;;;4965274;28;19914;-50
2024/01/07 01:55:52;;;;;;;;;;;;;;;;;;4965477;28;20019;-50
2024/01/07 01:58:18;;;;;;;;;;;;;;;;;;4965937;28;20548;-49
2024/01/07 02:00:44;;;;;;;;;;;-1.30;99.90;;;;;;4965944;28;19997;-50
2024/01/07 02:03:10;;;;;;;;;;;;;;;;;;4965829;28;20335;-50
2024/01/07 02:05:35;;;;;;;;;;;;;;;;;;4965637;28;19973;-50
2024/01/07 02:08:01;;;;;;;;;;;;;;;;;;4965977;28;19910;-50
2024/01/07 02:10:34;;;;;;;;;;;;;;;;;;4966185;28;20373;-49
2024/01/07 02:12:59;;;;;;;;;;;;;;;;;;4965431;28;19914;-50
2024/01/07 02:15:25;;;;;;;;;;;-1.20;99.90;;;;;;4965366;28;19941;-50
2024/01/07 02:17:51;;;;;;;;;;;;;;;;;;4965840;28;19973;-50
2024/01/07 02:20:17;;;;;;;;;;;;;;;;;;4965623;28;19933;-50
2024/01/07 02:22:43;;;;;;;;;;;;;;;;;;4965835;28;19925;-50
2024/01/07 02:25:09;;;;;;;;;;;;;;;;;;4965635;28;20009;-50
2024/01/07 02:27:34;;;;;;;;;;;-1.20;99.90;;;;;;4965410;28;20009;-50
2024/01/07 02:30:00;;;;;;;;;;;;;;;;;;4965240;28;19914;-50
2024/01/07 02:32:26;;;;;;;;;;;;;;;;;;4965098;28;20442;-49
2024/01/07 02:34:52;;;;;;;;;;;;;;;;;;4965712;28;19914;-50
2024/01/07 02:37:18;;;;;;;;;;;;;;;;;;4965218;28;19925;-50
2024/01/07 02:39:44;;;;;;;;;;;;;;;;;;4965248;28;19914;-50
2024/01/07 02:42:10;;;;;;;;;;;;;;;;;;4965159;28;19918;-50
2024/01/07 02:44:36;;;;;;;;;;;;;;;;;;4965230;28;20030;-50
2024/01/07 02:47:02;;;;;;;;;;;;;;;;;;4965080;28;19921;-49
2024/01/07 02:49:28;;;;;;;;;;;;;;;;;;4965682;28;20353;-50
2024/01/07 02:51:53;;;;;;;;;;;-1.40;99.90;;;;;;4964933;28;19921;-49
2024/01/07 02:54:19;;;;;;;;;;;;;;;;;;4965123;28;19979;-50
2024/01/07 02:56:45;;;;;;;;;;;;;;;;;;4965059;28;20010;-49
2024/01/07 02:59:11;;;;;;;;;;;;;;;;;;4964953;28;19910;-50
2024/01/07 03:01:40;;;;;;;;;;;-1.70;99.90;;;;;;4965583;28;19998;-50
2024/01/07 03:04:06;;;;;;;;;;;;;;;;;;4964633;28;19940;-50
2024/01/07 03:06:32;;;;;;;;;;;;;;;;;;4964799;28;19914;-49
2024/01/07 03:08:58;;;;;;;;;;;;;;;;;;4967493;28;19987;-50
2024/01/07 03:11:24;;;;;;;;;;;;;;;;;;4968190;28;20327;-49
2024/01/07 03:13:49;;;;;;;;;;;;;;;;;;4968735;28;19910;-50
2024/01/07 03:16:15;;;;;;;;;;;;;;;;;;4968521;28;19997;-50
2024/01/07 03:18:41;;;;;;;;;;;;;;;;;;4968198;28;20013;-49
2024/01/07 03:21:07;;;;;;;;;;;;;;;;;;4968516;28;19922;-49
2024/01/07 03:23:33;;;;;;;;;;;;;;;;;;4967562;28;20460;-50
2024/01/07 03:28:43;;;;;;;;;;;;;;;;;;4968700;28;20331;-50
2024/01/07 03:31:10;;;;;;;;;;;;;;;;;;4967681;28;19918;-50
2024/01/07 03:33:35;;;;;;;;;;;;;;;;;;4967701;28;19919;-50
2024/01/07 03:36:01;;;;;;;;;;;;;;;;;;4967818;28;20002;-50
2024/01/07 03:38:27;;;;;;;;;;;;;;;;;;4965942;28;19922;-50
2024/01/07 03:40:53;;;;;;;;;;;;;;;;;;4968104;28;20376;-50
2024/01/07 03:45:49;;;;;;;;;;;;;;;;;;4939706;28;19935;-45
2024/01/07 03:48:15;;;;;;;;;;;;;;;;;;4933132;28;20990;-46
2024/01/07 03:50:41;;;;;;;;;;;;;;;;;;4934370;28;19919;-45
2024/01/07 03:53:07;;;;;;;;;;;;;;;;;;4925739;28;19984;-46
2024/01/07 03:55:33;;;;;;;;;;;;;;;;;;4937175;28;19919;-49
2024/01/07 03:57:58;;;;;;;;;;;;;;;;;;4934161;28;19922;-48
2024/01/07 04:00:24;;;;;;;;;;;;;;;;;;4933990;28;19956;-48
2024/01/07 04:02:50;;;;;;;;;;;-2.70;1.00;;;;;;4923164;28;19923;-47
2024/01/07 04:05:16;;;;;;;;;;;;;;;;;;4924182;28;20018;-48
2024/01/07 04:07:41;;;;;;;;;;;;;;;;;;4926403;28;19929;-48
2024/01/07 04:10:07;;;;;;;;;;;;;;;;;;4927307;28;19922;-48
2024/01/07 04:12:33;;;;;;;;;;;;;;;;;;4935966;28;20105;-48
2024/01/07 04:14:59;;;;;;;;;;;-2.90;63.30;;;;;;4927636;28;19927;-48
2024/01/07 04:17:25;;;;;;;;;;;;;;;;;;4925928;28;20291;-48
2024/01/07 04:19:50;;;;;;;;;;;;;;;;;;4920357;28;19915;-48
2024/01/07 04:22:16;;;;;;;;;;;;;;;;;;4928140;28;19930;-48
2024/01/07 04:24:42;;;;;;;;;;;;;;;;;;4924933;28;20296;-48
2024/01/07 04:27:08;;;;;;;;;;;;;;;;;;4927662;28;19934;-48
2024/01/07 04:29:34;;;;;;;;;;;;;;;;;;4932315;28;19929;-47
2024/01/07 04:32:00;;;;;;;;;;;;;;;;;;4926570;28;19918;-47
2024/01/07 04:34:26;;;;;;;;;;;;;;;;;;4931791;28;20301;-47
2024/01/07 04:36:52;;;;;;;;;;;;;;;;;;4934661;28;19918;-48
2024/01/07 04:39:17;;;;;;;;;;;;;;;;;;4929714;28;19927;-48
2024/01/07 04:41:43;;;;;;;;;;;;;;;;;;4930268;28;20579;-48
2024/01/07 04:44:09;;;;;;;;;;;;;;;;;;4928120;28;19923;-47
2024/01/07 04:46:35;;;;;;;;;;;;;;;;;;4930176;28;19926;-48
2024/01/07 04:49:01;;;;;;;;;;;;;;;;;;4923801;28;19927;-48
2024/01/07 04:51:27;;;;;;;;;;;;;;;;;;4930393;28;19970;-47
2024/01/07 04:53:53;;;;;;;;;;;;;;;;;;4925196;28;20396;-47
2024/01/07 04:56:19;;;;;;;;;;;;;;;;;;4928671;28;19930;-48
2024/01/07 04:58:44;;;;;;;;;;;;;;;;;;4937613;28;19924;-47
2024/01/07 05:01:10;;;;;;;;;;;;;;;;;;4946066;28;19996;-47
2024/01/07 05:03:37;;;;;;;;;;;;;;;;;;4933802;28;20135;-47
2024/01/07 05:06:04;;;;;;;;;;;;;;;;;;4935196;28;20130;-47
2024/01/07 05:08:29;;;;;;;;;;;;;;;;;;4933649;28;20001;-47
2024/01/07 05:10:55;;;;;;;;;;;;;;;;;;4944122;28;20016;-46
2024/01/07 05:13:21;;;;;;;;;;;;;;;;;;4938869;28;19922;-46
2024/01/07 05:15:53;;;;;;;;;;;;;;;;;;4936290;28;20233;-47
2024/01/07 05:18:19;;;;;;;;;;;;;;;;;;4928296;28;19927;-47
2024/01/07 05:20:44;;;;;;;;;;;;;;;;;;4933892;28;19923;-48
2024/01/07 05:23:10;;;;;;;;;;;;;;;;;;4933394;28;20281;-47
2024/01/07 05:25:36;;;;;;;;;;;;;;;;;;4924473;28;19910;-47
2024/01/07 05:28:02;;;;;;;;;;;;;;;;;;4928675;28;19926;-47
2024/01/07 05:30:28;;;;;;;;;;;;;;;;;;4938686;28;19918;-47
2024/01/07 05:32:54;;;;;;;;;;;;;;;;;;4932463;28;19957;-46
2024/01/07 05:35:20;;;;;;;;;;;;;;;;;;4928944;28;20009;-47
2024/01/07 05:37:46;;;;;;;;;;;;;;;;;;4944150;28;20364;-47
2024/01/07 05:40:11;;;;;;;;;;;;;;;;;;4933847;28;20288;-47
2024/01/07 05:42:37;;;;;;;;;;;;;;;;;;4935938;28;19937;-47
2024/01/07 05:45:03;;;;;;;;;;;;;;;;;;4929935;28;19926;-47
2024/01/07 05:47:30;;;;;;;;;;;;;;;;;;4928072;28;20017;-47
2024/01/07 05:49:55;;;;;;;;;;;;;;;;;;4924768;28;19911;-46
2024/01/07 05:52:21;;;;;;;;;;;;;;;;;;4937205;28;19968;-47
2024/01/07 05:54:47;;;;;;;;;;;;;;;;;;4932413;28;19929;-47
2024/01/07 05:57:13;;;;;;;;;;;-3.00;99.90;;;;;;4933169;28;20961;-47
2024/01/07 05:59:39;;;;;;;;;;;;;;;;;;4940121;28;19927;-46
2024/01/07 06:02:04;;;;;;;;;;;;;;;;;;4933165;28;20293;-47
2024/01/07 06:04:30;;;;;;;;;;;;;;;;;;4933115;28;19919;-47
2024/01/07 06:06:56;;;;;;;;;;;;;;;;;;4934865;28;19933;-47
2024/01/07 06:09:22;;;;;;;;;;;;;;;;;;4932346;28;19927;-52
2024/01/07 06:11:48;;;;;;;;;;;;;;;;;;4928852;28;20019;-46
2024/01/07 06:14:15;;;;;;;;;;;;;;;;;;4930668;28;19921;-47
2024/01/07 06:16:42;;;;;;;;;;;;;;;;;;4937444;28;19937;-47
2024/01/07 06:19:08;;;;;;;;;;;;;;;;;;4925027;28;19919;-47
2024/01/07 06:21:34;;;;;;;;;;;;;;;;;;4935845;28;20401;-47
2024/01/07 06:24:00;;;;;;;;;;;;;;;;;;4934814;28;19926;-46
2024/01/07 06:26:26;;;;;;;;;;;;;;;;;;4924636;28;19927;-47
2024/01/07 06:28:51;;;;;;;;;;;;;;;;;;4930889;28;19984;-47
2024/01/07 06:31:17;;;;;;;;;;;;;;;;;;4929507;28;19961;-47
2024/01/07 06:33:43;;;;;;;;;;;;;;;;;;4938786;28;20027;-47
2024/01/07 06:36:09;;;;;;;;;;;;;;;;;;4928358;28;19926;-47
2024/01/07 06:38:35;;;;;;;;;;;;;;;;;;4932482;28;19953;-47
2024/01/07 06:41:03;;;;;;;;;;;;;;;;;;4927406;28;19921;-47
2024/01/07 06:43:29;;;;;;;;;;;;;;;;;;4937648;28;19934;-47
2024/01/07 06:45:55;;;;;;;;;;;;;;;;;;4929375;28;19926;-47
2024/01/07 06:48:21;;;;;;;;;;;;;;;;;;4932223;28;19966;-47
2024/01/07 06:50:47;;;;;;;;;;;;;;;;;;4927932;28;19969;-47
2024/01/07 06:53:13;;;;;;;;;;;;;;;;;;4938927;28;19919;-47
2024/01/07 06:55:39;;;;;;;;;;;;;;;;;;4932657;28;19930;-47
2024/01/07 06:58:04;;;;;;;;;;;;;;;;;;4930114;28;20002;-47
2024/01/07 07:00:30;;;;;;;;;;;;;;;;;;4929359;28;19923;-47
2024/01/07 07:02:56;;;;;;;;;;;;;;;;;;4928580;28;19929;-47
2024/01/07 07:05:22;;;;;;;;;;;;;;;;;;4932269;28;20029;-47
2024/01/07 07:07:48;;;;;;;;;;;;;;;;;;4933762;28;19958;-47
2024/01/07 07:10:15;;;;;;;;;;;;;;;;;;4932624;28;20459;-47
2024/01/07 07:12:41;;;;;;;;;;;;;;;;;;4925664;28;19922;-47
2024/01/07 07:15:09;;;;;;;;;;;;;;;;;;4930323;28;19919;-47
2024/01/07 07:17:35;;;;;;;;;;;;;;;;;;4931416;28;20024;-47
2024/01/07 07:20:01;;;;;;;;;;;;;;;;;;4938168;28;19962;-47
2024/01/07 07:22:27;;;;;;;;;;;;;;;;;;4932233;28;19984;-47
2024/01/07 07:24:53;;;;;;;;;;;;;;;;;;4935159;28;20418;-47
2024/01/07 07:27:19;;;;;;;;;;;;;;;;;;4937495;28;20008;-47
2024/01/07 07:29:45;;;;;;;;;;;;;;;;;;4928248;28;20288;-47
2024/01/07 07:32:10;;;;;;;;;;;;;;;;;;4932034;28;19926;-47
2024/01/07 07:34:36;;;;;;;;;;;;;;;;;;4932788;28;19910;-47
2024/01/07 07:37:02;;;;;;;;;;;;;;;;;;4930999;28;19925;-47
2024/01/07 07:39:28;;;;;;;;;;;;;;;;;;4935914;28;19918;-47
2024/01/07 07:41:54;;;;;;;;;;;;;;;;;;4933856;28;19919;-47
2024/01/07 07:44:20;;;;;;;;;;;;;;;;;;4931921;28;19927;-47
2024/01/07 07:46:46;;;;;;;;;;;;;;;;;;4935458;28;20016;-47
2024/01/07 07:49:12;;;;;;;;;;;;;;;;;;4941827;28;20272;-47
2024/01/07 07:51:39;;;;;;;;;;;;;;;;;;4930444;28;20124;-47
2024/01/07 07:54:05;;;;;;;;;;;;;;;;;;4940923;28;19989;-47
2024/01/07 07:56:31;;;;;;;;;;;;;;;;;;4924810;28;19982;-47
2024/01/07 07:58:57;;;;;;;;;;;;;;;;;;4951274;28;19918;-47
2024/01/07 08:01:24;;;;;;;;;;;-2.70;15.30;;;;;;4943036;28;19922;-47
2024/01/07 08:03:49;;;;;;;;;;;;;;;;;;4927393;28;19931;-47
2024/01/07 08:06:15;;;;;;;;;;;;;;;;;;4943488;28;20534;-47
2024/01/07 08:08:41;;;;;;;;;;;;;;;;;;4936841;28;19922;-47
2024/01/07 08:11:09;;;;;;;;;;;;;;;;;;4937062;28;20376;-47
2024/01/07 08:13:35;;;;;;;;;;;;;;;;;;4938599;28;20337;-47
2024/01/07 08:16:01;;;;;;;;;;;;;;;;;;4941600;28;19975;-47
2024/01/07 08:18:26;;;;;;;;;;;;;;;;;;4931538;28;20304;-47
2024/01/07 08:20:52;;;;;;;;;;;;;;;;;;4930789;28;19926;-48
2024/01/07 08:23:18;;;;;;;;;;;;;;;;;;4933493;28;19923;-47
2024/01/07 08:25:45;;;;;;;;;;;;;;;;;;4932124;28;20005;-48
2024/01/07 08:28:11;;;;;;;;;;;;;;;;;;4930320;28;19926;-47
2024/01/07 08:30:37;;;;;;;;;;;;;;;;;;4924986;28;19934;-47
2024/01/07 08:33:03;;;;;;;;;;;;;;;;;;4934822;28;20076;-48
2024/01/07 08:35:28;;;;;;;;;;;;;;;;;;4937162;28;19941;-47
2024/01/07 08:37:54;;;;;;;;;;;;;;;;;;4966940;28;20006;-47
2024/01/07 08:40:20;;;;;;;;;;;;;;;;;;4937782;28;19998;-47
2024/01/07 08:42:46;;;;;;;;;;;;;;;;;;4932558;28;19980;-47
2024/01/07 08:45:12;;;;;;;;;;;;;;;;;;4931929;28;20625;-47
2024/01/07 08:47:39;;;;;;;;;;;;;;;;;;4938386;28;19927;-48
2024/01/07 08:50:05;;;;;;;;;;;;;;;;;;4929649;28;19923;-48
2024/01/07 08:52:31;;;;;;;;;;;;;;;;;;4938875;28;20255;-47
2024/01/07 08:54:57;;;;;;;;;;;;;;;;;;4925843;28;20231;-47
2024/01/07 08:57:23;;;;;;;;;;;;;;;;;;4933802;28;19968;-47
2024/01/07 08:59:49;;;;;;;;;;;;;;;;;;4936338;28;19925;-47
2024/01/07 09:02:15;;;;;;;;;;;;;;;;;;4937741;28;19927;-47
2024/01/07 09:04:41;;;;;;;;;;;;;;;;;;4932125;28;19925;-47
2024/01/07 09:07:07;;;;;;;;;;;;;;;;;;4930079;28;19923;-47
2024/01/07 09:09:33;;;;;;;;;;;-1.70;99.90;;;;;;4929711;28;20025;-47
2024/01/07 09:12:00;;;;;;;;;;;;;;;;;;4931305;28;19919;-47
2024/01/07 09:14:26;;;;;;;;;;;;;;;;;;4935371;28;20239;-47
2024/01/07 09:16:53;;;;;;;;;;;;;;;;;;4933830;28;19919;-47
2024/01/07 09:19:19;;;;;;;;;;;;;;;;;;4941675;28;20489;-48
2024/01/07 09:21:45;;;;;;;;;;;;;;;;;;4943444;28;19930;-47
2024/01/07 09:24:10;;;;;;;;;;;;;;;;;;4944958;28;20019;-47
2024/01/07 09:26:37;;;;;;;;;;;;;;;;;;4936191;28;19914;-47
2024/01/07 09:29:03;;;;;;;;;;;;;;;;;;4938286;28;19913;-47
2024/01/07 09:31:29;;;;;;;;;;;-1.50;99.90;;;;;;4943703;28;20301;-48
2024/01/07 09:33:55;;;;;;;;;;;;;;;;;;4939203;28;19919;-47
2024/01/07 09:36:23;;;;;;;;;;;;;;;;;;4931610;28;21428;-47
2024/01/07 09:38:49;;;;;;;;;;;;;;;;;;4944951;28;19918;-47
2024/01/07 09:41:14;;;;;;;;;;;-1.30;99.90;;;;;;4948864;28;19911;-47
2024/01/07 09:43:40;;;;;;;;;;;-1.20;99.30;;;;;;4941224;28;19950;-48
2024/01/07 09:46:06;;;;;;;;;;;;;;;;;;4926886;28;20396;-47
2024/01/07 09:48:32;;;;;;;;;;;;;;;;;;4927058;28;19994;-47
2024/01/07 09:50:58;;;;;;;;;;;;;;;;;;4926766;28;19922;-47
2024/01/07 09:53:24;;;;;;;;;;;;;;;;;;4926669;28;19942;-47
2024/01/07 09:55:50;;;;;;;;;;;;;;;;;;4926983;29;20029;-47
2024/01/07 09:58:16;;;;;;;;;;;;;;;;;;4925304;28;19915;-47
2024/01/07 10:00:42;;;;;;;;;;;;;;;;;;4926356;28;20352;-47
2024/01/07 10:03:08;;;;;;;;;;;;;;;;;;4926142;28;19925;-47
2024/01/07 10:05:34;;;;;;;;;;;;;;;;;;4926782;28;20346;-47
2024/01/07 10:08:00;;;;;;;;;;;;;;;;;;4926420;28;20123;-47
2024/01/07 10:10:25;;;;;;;;;;;;;;;;;;4927128;29;19911;-47
2024/01/07 10:12:52;;;;;;;;;;;;;;;;;;4926027;28;20428;-47
2024/01/07 10:15:18;;;;;;;;;;;-0.80;99.90;;;;;;4926765;28;20068;-47
2024/01/07 10:17:45;;;;;;;;;;;;;;;;;;4928532;28;19951;-47
2024/01/07 10:20:11;;;;;;;;;;;;;;;;;;4929901;28;19997;-47
2024/01/07 10:22:37;;;;;;;;;;;;;;;;;;4929974;29;20441;-47
2024/01/07 10:25:04;;;;;;;175.80;28.70;;;-0.80;99.90;;;;;;4929356;28;20622;-47
2024/01/07 10:27:29;;;;;;;159.60;25.47;;;-0.60;99.90;;;;;;4929233;28;20262;-47
2024/01/07 10:29:58;;;;;;;158.57;25.13;;;-0.50;97.10;;;;;;4929507;28;20619;-47
2024/01/07 10:32:24;;;;;;;217.10;34.13;;;;;;;;;;4928726;28;20220;-47
2024/01/07 10:34:58;;;;;;;188.23;31.33;;;-0.60;97.70;;;;;;4929066;29;20651;-48
2024/01/07 10:37:24;;;;;;;188.27;29.00;;;;;;;;;;4929039;29;20647;-47
2024/01/07 10:39:50;;;;;;;163.13;27.73;;;;;;;;;;4928873;28;20279;-47
2024/01/07 10:42:18;;;;;;;148.77;23.63;;;-0.60;99.90;;;;;;4943394;28;20219;-48
2024/01/07 10:44:44;;;;;;;223.47;49.10;;;;;;;;;;4934234;28;20242;-47
2024/01/07 10:47:12;;;;;;;166.80;35.80;;;-0.30;96.70;;;;;;4947994;28;20237;-48
2024/01/07 10:49:42;;;;;;;181.57;37.80;;;-0.40;97.20;;;;;;4948809;28;20244;-48
2024/01/07 10:52:10;;;;;;;212.50;44.07;;;;;;;;;;4947368;28;20229;-47
2024/01/07 10:54:37;;;;;;;223.77;44.77;;;;;;;;;;4947595;28;20756;-47
2024/01/07 10:57:27;;;;;;;223.80;45.83;;;-0.20;97.50;;;;;;4947522;28;20284;-47
2024/01/07 10:59:55;;;;;;;231.90;46.43;;;0.00;99.40;;;;;;4947586;28;20697;-48
2024/01/07 11:02:22;;;;;;;197.27;41.37;;;-0.20;98.50;;;;;;4947986;28;20256;-47
2024/01/07 11:05:05;;;;;;;191.33;38.27;;;-0.20;98.50;;;;;;4948307;28;20203;-47
2024/01/07 11:07:37;;;;;;;207.37;41.97;;;0.10;99.90;;;;;;4947873;28;20214;-48
2024/01/07 11:10:04;;;;;;;198.73;39.47;;;;;;;;;;4947282;28;20299;-48
2024/01/07 11:12:31;;;;;;;194.30;42.90;;;-0.10;99.90;;;;;;4947595;28;20485;-47
2024/01/07 11:14:58;;;;;;;209.07;47.03;;;;;;;;;;4947266;28;20712;-47
2024/01/07 11:17:46;;;;;;;178.87;35.27;;;-0.20;99.00;;;;;;4947288;28;20226;-47
2024/01/07 11:20:21;;;;;;;167.07;34.23;;;-0.30;98.50;;;;;;4947537;28;20175;-47
2024/01/07 11:22:46;;;;;;;189.90;37.87;;;-0.20;99.90;;;;;;4947100;29;20194;-47
2024/01/07 11:25:29;;;;;;;169.03;34.23;;;-2.00;98.20;;;;;;4947610;28;20230;-47
2024/01/07 11:27:56;;;;;;;197.67;42.70;;;;;;;;;;4946198;28;20276;-47
2024/01/07 11:30:23;;;;;;;217.33;43.53;;;;;;;;;;4947321;28;20692;-47
2024/01/07 11:32:57;;;;;;;204.67;38.77;;;-0.20;99.20;;;;;;4947060;28;20230;-47
2024/01/07 11:35:56;;;;;;;175.27;37.27;;;-0.10;98.50;;;;;;4947047;28;20615;-47
2024/01/07 11:38:22;;;;;;;175.57;36.00;;;0.10;99.90;;;;;;4947208;28;20280;-47
2024/01/07 11:40:50;;;;;;;216.53;46.20;;;-0.10;98.30;;;;;;4976573;28;20192;-47
2024/01/07 11:43:16;;;;;;;177.03;35.30;;;;;;;;;;5027999;28;20220;-48
2024/01/07 11:45:42;;;;;;;218.00;42.77;;;;;;;;;;5027893;28;20223;-49
2024/01/07 11:48:08;;;;;;;208.23;39.63;;;;;;;;;;5028104;28;20230;-48
2024/01/07 11:50:35;;;;;;;187.50;38.27;;;-0.10;99.90;;;;;;5043053;28;20224;-48
2024/01/07 11:53:01;;;;;;;229.77;45.50;;;;;;;;;;5028351;28;20215;-48
2024/01/07 11:55:28;;;;;;;221.90;44.53;;;0.00;99.00;;;;;;5028406;28;20611;-49
2024/01/07 11:57:55;;;;;;;155.67;34.13;;;0.00;98.60;;;;;;5028409;28;20236;-48
2024/01/07 12:00:22;;;;;;;146.73;31.27;;;;;;;;;;5028431;28;20306;-49
2024/01/07 12:02:48;;;;;;;150.70;39.00;;;;;;;;;;5028606;28;20223;-46
2024/01/07 12:05:15;;;;;;;218.77;51.27;;;;;;;;;;5027721;28;20743;-47
2024/01/07 12:07:42;;;;;;;217.00;52.00;;;;;;;;;;5028451;28;20172;-47
2024/01/07 12:10:11;;;;;;;199.53;42.30;;;;;;;;;;5027811;28;20232;-47
2024/01/07 12:12:41;;;;;;;168.67;38.07;;;0.10;97.80;;;;;;4973074;28;20223;-47
2024/01/07 12:15:08;;;;;;;174.17;34.97;;;0.10;97.60;;;;;;4946765;28;20450;-47
2024/01/07 12:17:34;;;;;;;161.67;34.60;;;;;;;;;;4947062;28;20361;-47
2024/01/07 12:20:04;;;;;;;147.03;38.57;;;0.10;99.90;;;;;;4946886;28;20518;-47
2024/01/07 12:22:30;;;;;;;195.43;39.90;;;0.30;99.90;;;;;;4947525;29;20175;-47
2024/01/07 12:25:06;;;;;;;204.60;43.07;;;0.20;98.20;;;;;;4945079;28;20223;-47
2024/01/07 12:27:32;;;;;;;207.77;46.17;;;;;;;;;;4946386;28;20211;-47
2024/01/07 12:29:59;;;;;;;181.10;42.53;;;;;;;;;;4946374;28;20222;-47
2024/01/07 12:32:29;;;;;;;211.77;58.50;;;0.60;98.00;;;;;;4946849;28;20217;-47
2024/01/07 12:35:01;;;;;;;213.63;121.07;;;1.00;96.70;;;;;;4947537;28;20222;-47
2024/01/07 12:37:27;;;;;;;223.77;116.53;;;1.50;99.80;;;;;;4947232;28;20167;-47
2024/01/07 12:39:53;;;;;;;196.43;126.30;;;;;;;;;;4947043;28;20609;-47
2024/01/07 12:42:21;;;;;;;237.90;119.63;;;;;;;;;;4946605;28;20215;-47
2024/01/07 12:44:48;;;;;;;263.20;122.17;;;2.10;99.90;;;;;;4946009;28;20227;-47
2024/01/07 12:47:15;;;;;;;279.53;150.03;;;;;;;;;;4946372;28;20194;-47
2024/01/07 12:49:41;;;;;;;280.87;110.87;;;;;;;;;;4946246;28;20171;-47
2024/01/07 12:52:07;;;;;;;234.37;99.77;;;;;;;;;;4946142;28;20554;-47
2024/01/07 12:54:33;;;;;;;236.27;98.63;;;;;;;;;;4946640;28;20253;-47
2024/01/07 12:57:00;;;;;;;237.07;100.00;;;;;;;;;;4946505;28;20229;-46
2024/01/07 12:59:26;;;;;;;280.20;115.37;;;;;;;;;;4946130;28;20284;-46
2024/01/07 13:01:52;;;;;;;250.77;105.67;;;;;;;;;;4946272;28;20191;-46
2024/01/07 13:04:19;;;;;;;239.87;101.10;;;;;;;;;;4945868;28;20219;-46
2024/01/07 13:06:45;;;;;;;245.27;98.17;;;;;;;;;;4946295;28;20215;-47
2024/01/07 13:09:11;;;;;;;212.53;91.33;;;;;;;;;;4946076;28;20360;-46
2024/01/07 13:11:37;;;;;;;207.27;86.97;;;2.60;99.90;;;;;;4946027;28;20699;-46
2024/01/07 13:14:03;;;;;;;252.10;92.40;;;;;;;;;;4945957;28;20373;-46
2024/01/07 13:16:29;;;;;;;187.17;72.73;;;;;;;;;;4947020;28;20548;-46
2024/01/07 13:18:55;;;;;;;220.50;79.10;;;1.80;99.90;;;;;;4945644;28;20226;-46
2024/01/07 13:21:21;;;;;;;225.57;74.67;;;;;;;;;;4945337;28;20219;-46
2024/01/07 13:23:47;;;;;;;240.87;75.40;;;1.40;1.00;;;;;;4945425;28;20284;-46
2024/01/07 13:26:16;;;;;;;235.60;73.17;;;1.10;1.00;;;;;;4945184;28;20657;-46
2024/01/07 13:28:42;;;;;;;207.30;75.93;;;;;;;;;;4945788;28;20171;-46
2024/01/07 13:31:15;;;;;;;202.70;69.73;;;0.90;95.70;;;;;;4945901;28;20695;-46
2024/01/07 13:33:41;;;;;;;179.73;56.17;;;;;;;;;;4945193;28;20227;-47
2024/01/07 13:36:09;;;;;;;202.97;65.17;;;;;;;;;;4945564;28;20438;-46
2024/01/07 13:38:38;;;;;;;226.43;55.53;;;;;;;;;;4944992;28;20210;-47
2024/01/07 13:41:04;;;;;;;236.60;58.83;;;;;;;;;;4944895;28;20186;-47
2024/01/07 13:43:30;;;;;;;241.30;59.97;;;;;;;;;;4945214;28;20213;-50
2024/01/07 13:45:56;;;;;;;195.23;50.73;;;;;;;;;;4945448;28;20580;-47
2024/01/07 13:48:22;;;;;;;194.33;39.53;;;;;;;;;;4945190;28;20215;-47
2024/01/07 13:50:49;;;;;;;202.53;45.73;;;;;;;;;;4945056;28;20226;-47
2024/01/07 13:53:15;;;;;;;176.50;40.07;;;0.20;97.30;;;;;;4945564;28;20190;-47
2024/01/07 13:55:41;;;;;;;237.97;50.57;;;;;;;;;;4946094;28;20649;-47
2024/01/07 13:58:07;;;;;;;216.77;43.83;;;;;;;;;;4944711;28;20233;-47
2024/01/07 14:00:33;;;;;;;196.00;39.13;;;;;;;;;;4943294;28;20227;-47
2024/01/07 14:02:59;;;;;;;174.67;35.83;;;;;;;;;;4944891;28;20258;-47
2024/01/07 14:05:25;;;;;;;213.07;43.37;;;0.10;99.90;;;;;;4945055;28;20255;-47
2024/01/07 14:07:51;;;;;;;167.03;32.03;;;;;;;;;;4945597;28;20199;-47
2024/01/07 14:10:19;;;;;;;213.33;41.53;;;;;;;;;;4944892;28;20233;-47
2024/01/07 14:12:45;;;;;;;156.87;32.60;;;-0.20;99.90;;;;;;4945188;28;20719;-47
2024/01/07 14:15:11;;;;;;;222.67;45.17;;;;;;;;;;4944646;28;20222;-47
2024/01/07 14:17:37;;;;;;;219.57;42.27;;;;;;;;;;4944432;28;20677;-47
2024/01/07 14:20:03;;;;;;;174.40;34.13;;;;;;;;;;4944293;28;20273;-47
2024/01/07 14:22:29;;;;;;;213.27;41.57;;;;;;;;;;4945216;28;20229;-46
2024/01/07 14:24:55;;;;;;;198.53;38.37;;;;;;;;;;4944602;28;20237;-47
2024/01/07 14:27:21;;;;;;;173.40;35.60;;;-0.10;99.90;;;;;;4943328;28;20338;-47
2024/01/07 14:29:47;;;;;;;180.10;35.43;;;;;;;;;;4944469;28;20222;-47
2024/01/07 14:32:14;;;;;;;211.00;41.37;;;;;;;;;;4944635;28;20195;-47
2024/01/07 14:34:43;;;;;;;203.77;41.37;;;-0.30;99.30;;;;;;4944768;28;21059;-47
2024/01/07 14:37:10;;;;;;;230.93;43.43;;;;;;;;;;4944416;28;20237;-48
2024/01/07 14:39:36;;;;;;;211.27;42.57;;;;;;;;;;4944239;28;20680;-48
2024/01/07 14:42:02;;;;;;;165.67;32.20;;;;;;;;;;4944405;28;20308;-48
2024/01/07 14:44:28;;;;;;;246.00;52.40;;;;;;;;;;4932471;28;20614;-49
2024/01/07 14:46:54;;;;;;;264.50;53.87;;;;;;;;;;4934775;28;20218;-49
2024/01/07 14:49:20;;;;;;;214.20;45.07;;;;;;;;;;4930648;28;20212;-49
2024/01/07 14:51:46;;;;;;;282.47;57.90;;;;;;;;;;4928328;28;21658;-49
2024/01/07 14:54:13;;;;;;;239.30;48.30;;;-0.50;99.80;;;;;;4932972;28;20276;-49
2024/01/07 14:56:39;;;;;;;289.17;59.57;;;;;;;;;;4929219;28;20286;-51
2024/01/07 14:59:05;;;;;;;235.77;50.73;;;;;;;;;;4926994;28;20244;-49
2024/01/07 15:01:31;;;;;;;253.20;56.83;;;;;;;;;;4928191;28;20187;-49
2024/01/07 15:03:57;;;;;;;221.43;45.53;;;;;;;;;;4937688;28;20693;-49
2024/01/07 15:06:23;;;;;;;280.97;68.17;;;;;;;;;;4933169;28;20216;-50
2024/01/07 15:08:51;;;;;;;184.10;39.77;;;-0.60;99.90;;;;;;4937639;28;20537;-47
2024/01/07 15:11:16;;;;;;;186.97;35.37;;;-0.60;99.90;;;;;;4928123;28;20222;-46
2024/01/07 15:13:43;;;;;;;228.77;42.93;;;;;;;;;;4930477;29;20726;-46
2024/01/07 15:16:09;;;;;;;234.77;47.60;;;;;;;;;;4934966;28;20300;-49
2024/01/07 15:18:35;;;;;;;294.57;60.10;;;-0.70;99.90;;;;;;4931211;28;20296;-49
2024/01/07 15:21:05;;;;;;;222.40;45.33;;;-0.80;99.90;;;;;;4934491;28;20240;-49